sensor_id;sensor_type;location;lat;lon;timestamp;pressure;altitude;pressure_sealevel;temperature;humidity
58534;BME280;44109;52.398;7.024;2023-12-29T00:00:48;100404.59;;;10.19;100.00
58534;BME280;44109;52.398;7.024;2023-12-29T00:03:18;100409.84;;;10.24;100.00
58534;BME280;44109;52.398;7.024;2023-12-29T00:05:46;100398.94;;;10.12;100.00
58534;BME280;44109;52.398;7.024;2023-12-29T00:08:13;100410.41;;;10.10;100.00
58534;BME280;44109;52.398;7.024;2023-12-29T00:10:42;100419.13;;;10.09;100.00
58534;BME280;44109;52.398;7.024;2023-12-29T00:13:10;100422.41;;;10.18;100.00
58534;BME280;44109;52.398;7.024;2023-12-29T00:15:38;100395.81;;;9.83;100.00
58534;BME280;44109;52.398;7.024;2023-12-29T00:18:05;100404.41;;;10.05;100.00
58534;BME280;44109;52.398;7.024;2023-12-29T00:20:36;100419.06;;;10.05;100.00
58534;BME280;44109;52.398;7.024;2023-12-29T00:23:04;100415.56;;;10.12;100.00
58534;BME280;44109;52.398;7.024;2023-12-29T00:25:35;100401.72;;;10.12;100.00
58534;BME280;44109;52.398;7.024;2023-12-29T00:28:05;100403.34;;;10.13;100.00
58534;BME280;44109;52.398;7.024;2023-12-29T00:30:38;100363.53;;;9.98;100.00
58534;BME280;44109;52.398;7.024;2023-12-29T00:33:06;100384.53;;;10.29;100.00
58534;BME280;44109;52.398;7.024;2023-12-29T00:35:36;100400.88;;;10.08;100.00
58534;BME280;44109;52.398;7.024;2023-12-29T00:38:05;100394.53;;;10.07;100.00
58534;BME280;44109;52.398;7.024;2023-12-29T00:40:33;100381.75;;;9.96;100.00
58534;BME280;44109;52.398;7.024;2023-12-29T00:43:01;100382.44;;;9.89;100.00
58534;BME280;44109;52.398;7.024;2023-12-29T00:45:31;100377.44;;;10.02;100.00
58534;BME280;44109;52.398;7.024;2023-12-29T00:48:02;100371.56;;;10.07;100.00
58534;BME280;44109;52.398;7.024;2023-12-29T00:50:30;100354.16;;;10.06;100.00
58534;BME280;44109;52.398;7.024;2023-12-29T00:52:58;100353.94;;;9.88;100.00
58534;BME280;44109;52.398;7.024;2023-12-29T00:55:25;100354.16;;;10.06;100.00
58534;BME280;44109;52.398;7.024;2023-12-29T00:57:53;100368.72;;;10.00;100.00
58534;BME280;44109;52.398;7.024;2023-12-29T01:00:21;100350.69;;;10.13;100.00
58534;BME280;44109;52.398;7.024;2023-12-29T01:02:50;100308.81;;;9.88;100.00
58534;BME280;44109;52.398;7.024;2023-12-29T01:05:20;100319.34;;;10.09;100.00
58534;BME280;44109;52.398;7.024;2023-12-29T01:07:47;100319.38;;;10.12;100.00
58534;BME280;44109;52.398;7.024;2023-12-29T01:10:15;100313.03;;;10.12;100.00
58534;BME280;44109;52.398;7.024;2023-12-29T01:12:43;100328.81;;;10.04;100.00
58534;BME280;44109;52.398;7.024;2023-12-29T01:15:10;100311.91;;;10.16;100.00
58534;BME280;44109;52.398;7.024;2023-12-29T01:17:38;100321.84;;;10.18;100.00
58534;BME280;44109;52.398;7.024;2023-12-29T01:20:08;100328.31;;;10.29;100.00
58534;BME280;44109;52.398;7.024;2023-12-29T01:22:36;100321.84;;;10.18;100.00
58534;BME280;44109;52.398;7.024;2023-12-29T01:25:04;100331.28;;;10.13;100.00
58534;BME280;44109;52.398;7.024;2023-12-29T01:27:34;100334.50;;;10.19;100.00
58534;BME280;44109;52.398;7.024;2023-12-29T01:30:02;100343.13;;;10.10;100.00
58534;BME280;44109;52.398;7.024;2023-12-29T01:32:30;100327.72;;;10.16;100.00
58534;BME280;44109;52.398;7.024;2023-12-29T01:34:58;100315.31;;;10.03;100.00
58534;BME280;44109;52.398;7.024;2023-12-29T01:37:27;100330.47;;;10.12;100.00
58534;BME280;44109;52.398;7.024;2023-12-29T01:39:54;100328.81;;;10.08;100.00
58534;BME280;44109;52.398;7.024;2023-12-29T01:42:22;100320.50;;;10.08;100.00
58534;BME280;44109;52.398;7.024;2023-12-29T01:44:49;100319.41;;;10.16;100.00
58534;BME280;44109;52.398;7.024;2023-12-29T01:47:20;100302.63;;;10.02;100.00
58534;BME280;44109;52.398;7.024;2023-12-29T01:49:51;100310.75;;;10.21;100.00
58534;BME280;44109;52.398;7.024;2023-12-29T01:52:19;100304.06;;;10.22;100.00
58534;BME280;44109;52.398;7.024;2023-12-29T01:54:50;100316.16;;;10.07;100.00
58534;BME280;44109;52.398;7.024;2023-12-29T01:57:19;100305.84;;;10.07;100.00
58534;BME280;44109;52.398;7.024;2023-12-29T01:59:47;100308.78;;;10.22;100.00
58534;BME280;44109;52.398;7.024;2023-12-29T02:02:17;100303.31;;;10.25;100.00
58534;BME280;44109;52.398;7.024;2023-12-29T02:04:45;100304.38;;;10.17;100.00
58534;BME280;44109;52.398;7.024;2023-12-29T02:07:13;100296.53;;;10.23;100.00
58534;BME280;44109;52.398;7.024;2023-12-29T02:09:41;100289.72;;;10.16;100.00
58534;BME280;44109;52.398;7.024;2023-12-29T02:12:10;100286.91;;;10.09;100.00
58534;BME280;44109;52.398;7.024;2023-12-29T02:14:37;100296.66;;;10.33;100.00
58534;BME280;44109;52.398;7.024;2023-12-29T02:17:12;100290.28;;;10.29;100.00
58534;BME280;44109;52.398;7.024;2023-12-29T02:19:47;100251.66;;;10.10;100.00
58534;BME280;44109;52.398;7.024;2023-12-29T02:22:16;100279.47;;;10.21;100.00
58534;BME280;44109;52.398;7.024;2023-12-29T02:24:46;100285.63;;;10.37;100.00
58534;BME280;44109;52.398;7.024;2023-12-29T02:27:21;100280.00;;;10.30;100.00
58534;BME280;44109;52.398;7.024;2023-12-29T02:30:02;100290.38;;;10.36;100.00
58534;BME280;44109;52.398;7.024;2023-12-29T02:32:38;100277.31;;;10.37;100.00
58534;BME280;44109;52.398;7.024;2023-12-29T02:35:21;100287.16;;;10.34;100.00
58534;BME280;44109;52.398;7.024;2023-12-29T02:37:52;100268.13;;;10.29;100.00
58534;BME280;44109;52.398;7.024;2023-12-29T02:40:22;100291.78;;;10.23;100.00
58534;BME280;44109;52.398;7.024;2023-12-29T02:42:53;100279.16;;;10.26;100.00
58534;BME280;44109;52.398;7.024;2023-12-29T02:45:21;100269.44;;;10.43;100.00
58534;BME280;44109;52.398;7.024;2023-12-29T02:47:49;100272.13;;;10.32;100.00
58534;BME280;44109;52.398;7.024;2023-12-29T02:50:18;100287.22;;;10.38;100.00
58534;BME280;44109;52.398;7.024;2023-12-29T02:52:45;100276.16;;;10.41;100.00
58534;BME280;44109;52.398;7.024;2023-12-29T02:55:14;100283.84;;;10.22;100.00
58534;BME280;44109;52.398;7.024;2023-12-29T02:57:45;100288.72;;;10.28;100.00
58534;BME280;44109;52.398;7.024;2023-12-29T03:00:13;100281.75;;;10.45;100.00
58534;BME280;44109;52.398;7.024;2023-12-29T03:02:47;100286.34;;;10.30;100.00
58534;BME280;44109;52.398;7.024;2023-12-29T03:05:15;100308.72;;;10.14;100.00
58534;BME280;44109;52.398;7.024;2023-12-29T03:07:43;100286.38;;;10.34;100.00
58534;BME280;44109;52.398;7.024;2023-12-29T03:10:11;100299.75;;;10.25;100.00
58534;BME280;44109;52.398;7.024;2023-12-29T03:12:39;100298.56;;;10.26;100.00
58534;BME280;44109;52.398;7.024;2023-12-29T03:15:10;100305.34;;;10.28;100.00
58534;BME280;44109;52.398;7.024;2023-12-29T03:17:38;100295.00;;;10.25;100.00
58534;BME280;44109;52.398;7.024;2023-12-29T03:20:07;100301.47;;;10.36;100.00
58534;BME280;44109;52.398;7.024;2023-12-29T03:22:40;100297.03;;;10.28;100.00
58534;BME280;44109;52.398;7.024;2023-12-29T03:25:07;100281.50;;;10.24;100.00
58534;BME280;44109;52.398;7.024;2023-12-29T03:27:35;100288.56;;;10.18;100.00
58534;BME280;44109;52.398;7.024;2023-12-29T03:30:03;100281.25;;;10.02;100.00
58534;BME280;44109;52.398;7.024;2023-12-29T03:32:33;100275.16;;;10.23;100.00
58534;BME280;44109;52.398;7.024;2023-12-29T03:35:01;100282.06;;;10.03;100.00
58534;BME280;44109;52.398;7.024;2023-12-29T03:37:28;100259.81;;;9.96;100.00
58534;BME280;44109;52.398;7.024;2023-12-29T03:39:56;100286.34;;;9.97;100.00
58534;BME280;44109;52.398;7.024;2023-12-29T03:42:26;100270.91;;;9.96;100.00
58534;BME280;44109;52.398;7.024;2023-12-29T03:44:53;100257.56;;;10.05;100.00
58534;BME280;44109;52.398;7.024;2023-12-29T03:47:21;100264.53;;;9.91;100.00
58534;BME280;44109;52.398;7.024;2023-12-29T03:49:50;100270.22;;;10.06;100.00
58534;BME280;44109;52.398;7.024;2023-12-29T03:52:17;100268.88;;;9.93;100.00
58534;BME280;44109;52.398;7.024;2023-12-29T03:54:45;100265.38;;;9.96;100.00
58534;BME280;44109;52.398;7.024;2023-12-29T03:57:12;100266.22;;;10.00;100.00
58534;BME280;44109;52.398;7.024;2023-12-29T03:59:40;100256.75;;;10.04;100.00
58534;BME280;44109;52.398;7.024;2023-12-29T04:02:10;100260.47;;;9.85;100.00
58534;BME280;44109;52.398;7.024;2023-12-29T04:04:38;100275.66;;;9.99;100.00
58534;BME280;44109;52.398;7.024;2023-12-29T04:07:07;100272.59;;;10.04;100.00
58534;BME280;44109;52.398;7.024;2023-12-29T04:09:35;100267.69;;;9.94;100.00
58534;BME280;44109;52.398;7.024;2023-12-29T04:12:03;100269.34;;;9.98;100.00
58534;BME280;44109;52.398;7.024;2023-12-29T04:14:32;100268.47;;;9.90;100.00
58534;BME280;44109;52.398;7.024;2023-12-29T04:17:02;100284.31;;;9.94;100.00
58534;BME280;44109;52.398;7.024;2023-12-29T04:19:39;100301.28;;;9.88;100.00
58534;BME280;44109;52.398;7.024;2023-12-29T04:22:08;100306.53;;;9.97;100.00
58534;BME280;44109;52.398;7.024;2023-12-29T04:24:37;100295.75;;;9.88;100.00
58534;BME280;44109;52.398;7.024;2023-12-29T04:27:05;100296.84;;;9.80;100.00
58534;BME280;44109;52.398;7.024;2023-12-29T04:29:33;100285.41;;;9.82;100.00
58534;BME280;44109;52.398;7.024;2023-12-29T04:32:09;100288.78;;;9.68;100.00
58534;BME280;44109;52.398;7.024;2023-12-29T04:34:37;100286.69;;;9.61;100.00
58534;BME280;44109;52.398;7.024;2023-12-29T04:37:04;100291.56;;;9.68;100.00
58534;BME280;44109;52.398;7.024;2023-12-29T04:39:33;100281.63;;;9.67;100.00
58534;BME280;44109;52.398;7.024;2023-12-29T04:42:01;100289.69;;;9.79;100.00
58534;BME280;44109;52.398;7.024;2023-12-29T04:44:28;100282.44;;;9.68;100.00
58534;BME280;44109;52.398;7.024;2023-12-29T04:46:56;100268.69;;;9.75;100.00
58534;BME280;44109;52.398;7.024;2023-12-29T04:49:24;100271.03;;;9.73;100.00
58534;BME280;44109;52.398;7.024;2023-12-29T04:51:51;100278.56;;;9.72;100.00
58534;BME280;44109;52.398;7.024;2023-12-29T04:54:19;100284.41;;;9.67;100.00
58534;BME280;44109;52.398;7.024;2023-12-29T04:56:48;100289.28;;;9.77;100.00
58534;BME280;44109;52.398;7.024;2023-12-29T04:59:16;100297.59;;;9.77;100.00
58534;BME280;44109;52.398;7.024;2023-12-29T05:01:47;100290.09;;;9.78;100.00
58534;BME280;44109;52.398;7.024;2023-12-29T05:04:14;100290.44;;;9.76;100.00
58534;BME280;44109;52.398;7.024;2023-12-29T05:06:43;100288.97;;;9.82;100.00
58534;BME280;44109;52.398;7.024;2023-12-29T05:09:12;100294.41;;;9.75;100.00
58534;BME280;44109;52.398;7.024;2023-12-29T05:11:40;100296.53;;;9.89;100.00
58534;BME280;44109;52.398;7.024;2023-12-29T05:14:09;100301.00;;;9.97;100.00
58534;BME280;44109;52.398;7.024;2023-12-29T05:16:36;100300.16;;;9.93;100.00
58534;BME280;44109;52.398;7.024;2023-12-29T05:19:04;100294.41;;;10.09;100.00
58534;BME280;44109;52.398;7.024;2023-12-29T05:21:31;100304.72;;;10.12;100.00
58534;BME280;44109;52.398;7.024;2023-12-29T05:24:02;100303.72;;;9.94;100.00
58534;BME280;44109;52.398;7.024;2023-12-29T05:26:32;100297.44;;;9.97;100.00
58534;BME280;44109;52.398;7.024;2023-12-29T05:28:59;100306.16;;;9.99;100.00
58534;BME280;44109;52.398;7.024;2023-12-29T05:31:28;100305.97;;;9.84;100.00
58534;BME280;44109;52.398;7.024;2023-12-29T05:33:56;100307.78;;;10.00;100.00
58534;BME280;44109;52.398;7.024;2023-12-29T05:36:23;100311.69;;;9.99;100.00
58534;BME280;44109;52.398;7.024;2023-12-29T05:38:53;100306.44;;;9.90;100.00
58534;BME280;44109;52.398;7.024;2023-12-29T05:41:21;100297.84;;;9.99;100.00
58534;BME280;44109;52.398;7.024;2023-12-29T05:43:48;100299.03;;;9.98;100.00
58534;BME280;44109;52.398;7.024;2023-12-29T05:46:19;100300.31;;;10.04;100.00
58534;BME280;44109;52.398;7.024;2023-12-29T05:48:48;100306.63;;;10.04;100.00
58534;BME280;44109;52.398;7.024;2023-12-29T05:51:17;100294.81;;;10.11;100.00
58534;BME280;44109;52.398;7.024;2023-12-29T05:53:45;100308.63;;;10.04;100.00
58534;BME280;44109;52.398;7.024;2023-12-29T05:56:13;100305.84;;;10.07;100.00
58534;BME280;44109;52.398;7.024;2023-12-29T05:58:41;100309.47;;;10.11;100.00
58534;BME280;44109;52.398;7.024;2023-12-29T06:01:10;100296.50;;;10.19;100.00
58534;BME280;44109;52.398;7.024;2023-12-29T06:03:37;100302.22;;;10.00;100.00
58534;BME280;44109;52.398;7.024;2023-12-29T06:06:06;100307.50;;;10.12;100.00
58534;BME280;44109;52.398;7.024;2023-12-29T06:08:34;100326.50;;;10.10;100.00
58534;BME280;44109;52.398;7.024;2023-12-29T06:11:02;100327.38;;;10.18;100.00
58534;BME280;44109;52.398;7.024;2023-12-29T06:13:30;100304.16;;;9.96;100.00
58534;BME280;44109;52.398;7.024;2023-12-29T06:15:58;100326.03;;;10.04;100.00
58534;BME280;44109;52.398;7.024;2023-12-29T06:18:25;100332.06;;;10.13;100.00
58534;BME280;44109;52.398;7.024;2023-12-29T06:20:53;100320.59;;;10.15;100.00
58534;BME280;44109;52.398;7.024;2023-12-29T06:23:22;100308.78;;;10.22;100.00
58534;BME280;44109;52.398;7.024;2023-12-29T06:25:51;100316.59;;;10.12;100.00
58534;BME280;44109;52.398;7.024;2023-12-29T06:28:19;100312.69;;;10.13;100.00
58534;BME280;44109;52.398;7.024;2023-12-29T06:30:49;100320.94;;;10.10;100.00
58534;BME280;44109;52.398;7.024;2023-12-29T06:33:17;100328.03;;;10.07;100.00
58534;BME280;44109;52.398;7.024;2023-12-29T06:35:46;100328.00;;;10.04;100.00
58534;BME280;44109;52.398;7.024;2023-12-29T06:38:16;100316.09;;;10.00;100.00
58534;BME280;44109;52.398;7.024;2023-12-29T06:40:45;100322.38;;;9.97;100.00
58534;BME280;44109;52.398;7.024;2023-12-29T06:43:13;100317.75;;;10.08;100.00
58534;BME280;44109;52.398;7.024;2023-12-29T06:45:41;100324.97;;;10.16;100.00
58534;BME280;44109;52.398;7.024;2023-12-29T06:48:08;100324.91;;;10.09;100.00
58534;BME280;44109;52.398;7.024;2023-12-29T06:50:36;100313.88;;;10.16;100.00
58534;BME280;44109;52.398;7.024;2023-12-29T06:53:04;100292.28;;;9.95;100.00
58534;BME280;44109;52.398;7.024;2023-12-29T06:55:31;100306.78;;;10.19;100.00
58534;BME280;44109;52.398;7.024;2023-12-29T06:58:00;100306.75;;;10.15;100.00
58534;BME280;44109;52.398;7.024;2023-12-29T07:00:28;100303.38;;;10.29;100.00
58534;BME280;44109;52.398;7.024;2023-12-29T07:02:56;100283.66;;;10.04;100.00
58534;BME280;44109;52.398;7.024;2023-12-29T07:05:23;100299.28;;;10.19;100.00
58534;BME280;44109;52.398;7.024;2023-12-29T07:07:51;100304.09;;;10.26;100.00
58534;BME280;44109;52.398;7.024;2023-12-29T07:10:19;100298.69;;;10.36;100.00
58534;BME280;44109;52.398;7.024;2023-12-29T07:12:46;100280.03;;;10.33;100.00
58534;BME280;44109;52.398;7.024;2023-12-29T07:15:15;100287.97;;;10.35;100.00
58534;BME280;44109;52.398;7.024;2023-12-29T07:17:43;100297.59;;;10.45;100.00
58534;BME280;44109;52.398;7.024;2023-12-29T07:20:12;100260.81;;;10.14;100.00
58534;BME280;44109;52.398;7.024;2023-12-29T07:22:39;100289.69;;;10.47;100.00
58534;BME280;44109;52.398;7.024;2023-12-29T07:25:08;100277.78;;;10.46;100.00
58534;BME280;44109;52.398;7.024;2023-12-29T07:27:37;100276.56;;;10.44;100.00
58534;BME280;44109;52.398;7.024;2023-12-29T07:30:06;100274.56;;;10.40;100.00
58534;BME280;44109;52.398;7.024;2023-12-29T07:32:38;100274.28;;;10.53;100.00
58534;BME280;44109;52.398;7.024;2023-12-29T07:35:06;100279.81;;;10.53;100.00
58534;BME280;44109;52.398;7.024;2023-12-29T07:37:35;100284.56;;;10.52;100.00
58534;BME280;44109;52.398;7.024;2023-12-29T07:40:04;100280.25;;;10.55;100.00
58534;BME280;44109;52.398;7.024;2023-12-29T07:42:34;100264.84;;;10.61;100.00
58534;BME280;44109;52.398;7.024;2023-12-29T07:45:01;100262.06;;;10.61;100.00
58534;BME280;44109;52.398;7.024;2023-12-29T07:47:29;100262.50;;;10.66;100.00
58534;BME280;44109;52.398;7.024;2023-12-29T07:49:59;100265.19;;;10.56;100.00
58534;BME280;44109;52.398;7.024;2023-12-29T07:52:30;100267.22;;;10.59;100.00
58534;BME280;44109;52.398;7.024;2023-12-29T07:54:57;100273.59;;;10.63;100.00
58534;BME280;44109;52.398;7.024;2023-12-29T07:57:25;100268.53;;;10.72;100.00
58534;BME280;44109;52.398;7.024;2023-12-29T07:59:53;100274.88;;;10.76;100.00
58534;BME280;44109;52.398;7.024;2023-12-29T08:02:20;100272.44;;;10.68;100.00
58534;BME280;44109;52.398;7.024;2023-12-29T08:04:48;100281.13;;;10.66;100.00
58534;BME280;44109;52.398;7.024;2023-12-29T08:07:17;100268.13;;;10.74;100.00
58534;BME280;44109;52.398;7.024;2023-12-29T08:09:45;100273.66;;;10.74;100.00
58534;BME280;44109;52.398;7.024;2023-12-29T08:12:12;100263.44;;;10.85;100.00
58534;BME280;44109;52.398;7.024;2023-12-29T08:14:43;100267.72;;;10.75;100.00
58534;BME280;44109;52.398;7.024;2023-12-29T08:17:11;100271.75;;;10.81;100.00
58534;BME280;44109;52.398;7.024;2023-12-29T08:19:40;100256.59;;;10.68;100.00
58534;BME280;44109;52.398;7.024;2023-12-29T08:22:07;100273.34;;;10.82;100.00
58534;BME280;44109;52.398;7.024;2023-12-29T08:24:40;100275.53;;;10.62;100.00
58534;BME280;44109;52.398;7.024;2023-12-29T08:27:08;100285.00;;;10.58;100.00
58534;BME280;44109;52.398;7.024;2023-12-29T08:29:36;100290.59;;;10.61;100.00
58534;BME280;44109;52.398;7.024;2023-12-29T08:32:04;100295.25;;;10.50;100.00
58534;BME280;44109;52.398;7.024;2023-12-29T08:34:32;100301.13;;;10.41;100.00
58534;BME280;44109;52.398;7.024;2023-12-29T08:37:00;100302.72;;;10.43;100.00
58534;BME280;44109;52.398;7.024;2023-12-29T08:39:28;100300.00;;;10.50;100.00
58534;BME280;44109;52.398;7.024;2023-12-29T08:41:57;100297.72;;;10.62;100.00
58534;BME280;44109;52.398;7.024;2023-12-29T08:44:25;100299.53;;;10.44;100.00
58534;BME280;44109;52.398;7.024;2023-12-29T08:46:52;100309.34;;;10.34;100.00
58534;BME280;44109;52.398;7.024;2023-12-29T08:49:20;100319.78;;;10.45;100.00
58534;BME280;44109;52.398;7.024;2023-12-29T08:51:47;100312.38;;;10.59;100.00
58534;BME280;44109;52.398;7.024;2023-12-29T08:54:15;100299.22;;;10.53;100.00
58534;BME280;44109;52.398;7.024;2023-12-29T08:56:43;100307.06;;;10.44;100.00
58534;BME280;44109;52.398;7.024;2023-12-29T08:59:11;100312.00;;;10.61;100.00
58534;BME280;44109;52.398;7.024;2023-12-29T09:01:42;100311.91;;;10.50;100.00
58534;BME280;44109;52.398;7.024;2023-12-29T09:04:09;100298.41;;;10.49;100.00
58534;BME280;44109;52.398;7.024;2023-12-29T09:06:37;100308.91;;;10.29;100.00
58534;BME280;44109;52.398;7.024;2023-12-29T09:09:07;100304.78;;;10.53;100.00
58534;BME280;44109;52.398;7.024;2023-12-29T09:11:38;100319.13;;;10.58;100.00
58534;BME280;44109;52.398;7.024;2023-12-29T09:14:06;100321.50;;;11.04;100.00
58534;BME280;44109;52.398;7.024;2023-12-29T09:16:36;100314.03;;;11.15;100.00
58534;BME280;44109;52.398;7.024;2023-12-29T09:19:06;100314.19;;;10.85;100.00
58534;BME280;44109;52.398;7.024;2023-12-29T09:21:33;100312.28;;;10.93;100.00
58534;BME280;44109;52.398;7.024;2023-12-29T09:24:01;100321.78;;;10.92;100.00
58534;BME280;44109;52.398;7.024;2023-12-29T09:26:28;100323.09;;;11.05;100.00
58534;BME280;44109;52.398;7.024;2023-12-29T09:28:56;100317.78;;;10.89;100.00
58534;BME280;44109;52.398;7.024;2023-12-29T09:31:24;100313.81;;;10.87;100.00
58534;BME280;44109;52.398;7.024;2023-12-29T09:33:53;100316.63;;;10.90;100.00
58534;BME280;44109;52.398;7.024;2023-12-29T09:36:20;100302.84;;;11.05;100.00
58534;BME280;44109;52.398;7.024;2023-12-29T09:38:48;100307.28;;;11.16;100.00
58534;BME280;44109;52.398;7.024;2023-12-29T09:41:15;100313.22;;;11.15;100.00
58534;BME280;44109;52.398;7.024;2023-12-29T09:43:48;100310.06;;;11.13;100.00
58534;BME280;44109;52.398;7.024;2023-12-29T09:46:17;100310.66;;;10.88;100.00
58534;BME280;44109;52.398;7.024;2023-12-29T09:48:46;100305.91;;;10.89;100.00
58534;BME280;44109;52.398;7.024;2023-12-29T09:51:15;100312.22;;;10.86;100.00
58534;BME280;44109;52.398;7.024;2023-12-29T09:53:49;100324.25;;;11.01;100.00
58534;BME280;44109;52.398;7.024;2023-12-29T09:56:18;100318.66;;;10.97;100.00
58534;BME280;44109;52.398;7.024;2023-12-29T09:58:47;100315.91;;;11.01;100.00
58534;BME280;44109;52.398;7.024;2023-12-29T10:01:17;100290.94;;;11.01;100.00
58534;BME280;44109;52.398;7.024;2023-12-29T10:03:47;100308.47;;;11.15;100.00
58534;BME280;44109;52.398;7.024;2023-12-29T10:06:20;100304.50;;;11.16;100.00
58534;BME280;44109;52.398;7.024;2023-12-29T10:08:51;100307.22;;;11.06;100.00
58534;BME280;44109;52.398;7.024;2023-12-29T10:11:21;100310.09;;;11.20;100.00
58534;BME280;44109;52.398;7.024;2023-12-29T10:13:54;100313.16;;;11.08;100.00
58534;BME280;44109;52.398;7.024;2023-12-29T10:16:28;100321.66;;;11.29;100.00
58534;BME280;44109;52.398;7.024;2023-12-29T10:19:10;100304.50;;;11.13;100.00
58534;BME280;44109;52.398;7.024;2023-12-29T10:21:54;100310.81;;;11.10;100.00
58534;BME280;44109;52.398;7.024;2023-12-29T10:24:30;100317.50;;;11.02;100.00
58534;BME280;44109;52.398;7.024;2023-12-29T10:26:58;100317.28;;;11.28;100.00
58534;BME280;44109;52.398;7.024;2023-12-29T10:29:27;100329.31;;;11.47;100.00
58534;BME280;44109;52.398;7.024;2023-12-29T10:31:55;100310.63;;;11.40;100.00
58534;BME280;44109;52.398;7.024;2023-12-29T10:34:25;100309.06;;;11.46;100.00
58534;BME280;44109;52.398;7.024;2023-12-29T10:36:57;100313.00;;;11.38;100.00
58534;BME280;44109;52.398;7.024;2023-12-29T10:39:29;100297.19;;;11.46;100.00
58534;BME280;44109;52.398;7.024;2023-12-29T10:42:04;100305.53;;;11.49;100.00
58534;BME280;44109;52.398;7.024;2023-12-29T10:44:34;100275.25;;;11.30;100.00
58534;BME280;44109;52.398;7.024;2023-12-29T10:47:08;100284.94;;;11.61;100.00
58534;BME280;44109;52.398;7.024;2023-12-29T10:49:36;100277.84;;;11.71;100.00
58534;BME280;44109;52.398;7.024;2023-12-29T10:52:12;100294.53;;;11.74;100.00
58534;BME280;44109;52.398;7.024;2023-12-29T10:54:39;100282.59;;;11.70;100.00
58534;BME280;44109;52.398;7.024;2023-12-29T10:57:10;100287.06;;;11.85;100.00
58534;BME280;44109;52.398;7.024;2023-12-29T10:59:39;100297.72;;;11.80;100.00
58534;BME280;44109;52.398;7.024;2023-12-29T11:02:11;100285.06;;;11.82;100.00
58534;BME280;44109;52.398;7.024;2023-12-29T11:04:41;100253.16;;;11.51;100.00
58534;BME280;44109;52.398;7.024;2023-12-29T11:07:12;100285.16;;;12.00;100.00
58534;BME280;44109;52.398;7.024;2023-12-29T11:09:40;100298.91;;;11.79;100.00
58534;BME280;44109;52.398;7.024;2023-12-29T11:12:09;100291.38;;;11.79;100.00
58534;BME280;44109;52.398;7.024;2023-12-29T11:14:38;100308.03;;;11.76;100.00
58534;BME280;44109;52.398;7.024;2023-12-29T11:17:08;100315.66;;;11.89;100.00
58534;BME280;44109;52.398;7.024;2023-12-29T11:19:38;100305.41;;;12.04;100.00
58534;BME280;44109;52.398;7.024;2023-12-29T11:22:08;100306.97;;;12.02;100.00
58534;BME280;44109;52.398;7.024;2023-12-29T11:24:41;100323.19;;;11.85;100.00
58534;BME280;44109;52.398;7.024;2023-12-29T11:27:12;100311.25;;;11.81;100.00
58534;BME280;44109;52.398;7.024;2023-12-29T11:29:41;100315.59;;;11.79;100.00
58534;BME280;44109;52.398;7.024;2023-12-29T11:32:14;100317.63;;;11.85;100.00
58534;BME280;44109;52.398;7.024;2023-12-29T11:34:52;100307.59;;;11.66;100.00
58534;BME280;44109;52.398;7.024;2023-12-29T11:37:30;100315.06;;;11.52;100.00
58534;BME280;44109;52.398;7.024;2023-12-29T11:40:18;100313.50;;;11.58;100.00
58534;BME280;44109;52.398;7.024;2023-12-29T11:42:51;100310.38;;;11.63;100.00
58534;BME280;44109;52.398;7.024;2023-12-29T11:45:29;100317.13;;;11.65;100.00
58534;BME280;44109;52.398;7.024;2023-12-29T11:48:01;100304.38;;;11.54;100.00
58534;BME280;44109;52.398;7.024;2023-12-29T11:50:31;100311.91;;;11.57;100.00
58534;BME280;44109;52.398;7.024;2023-12-29T11:52:59;100307.88;;;11.47;100.00
58534;BME280;44109;52.398;7.024;2023-12-29T11:55:30;100325.81;;;11.02;100.00
58534;BME280;44109;52.398;7.024;2023-12-29T11:58:02;100313.56;;;10.58;100.00
58534;BME280;44109;52.398;7.024;2023-12-29T12:00:44;100323.44;;;9.88;100.00
58534;BME280;44109;52.398;7.024;2023-12-29T12:03:17;100333.88;;;9.69;100.00
58534;BME280;44109;52.398;7.024;2023-12-29T12:05:47;100405.09;;;9.68;100.00
58534;BME280;44109;52.398;7.024;2023-12-29T12:08:32;100331.06;;;7.81;100.00
58534;BME280;44109;52.398;7.024;2023-12-29T12:14:47;100330.47;;;7.92;100.00
58534;BME280;44109;52.398;7.024;2023-12-29T12:17:30;100332.94;;;7.77;100.00
58534;BME280;44109;52.398;7.024;2023-12-29T12:20:02;100351.97;;;8.02;100.00
58534;BME280;44109;52.398;7.024;2023-12-29T12:22:31;100342.69;;;7.91;100.00
58534;BME280;44109;52.398;7.024;2023-12-29T12:24:59;100351.25;;;8.44;100.00
58534;BME280;44109;52.398;7.024;2023-12-29T12:27:31;100334.50;;;8.56;100.00
58534;BME280;44109;52.398;7.024;2023-12-29T12:29:59;100325.03;;;8.80;100.00
58534;BME280;44109;52.398;7.024;2023-12-29T12:32:29;100338.91;;;8.83;100.00
58534;BME280;44109;52.398;7.024;2023-12-29T12:34:57;100347.81;;;8.96;100.00
58534;BME280;44109;52.398;7.024;2023-12-29T12:37:26;100350.41;;;8.85;100.00
58534;BME280;44109;52.398;7.024;2023-12-29T12:39:57;100347.91;;;9.00;100.00
58534;BME280;44109;52.398;7.024;2023-12-29T12:42:25;100350.88;;;9.14;100.00
58534;BME280;44109;52.398;7.024;2023-12-29T12:44:56;100353.97;;;9.09;100.00
58534;BME280;44109;52.398;7.024;2023-12-29T12:47:34;100350.91;;;9.40;100.00
58534;BME280;44109;52.398;7.024;2023-12-29T12:50:05;100354.09;;;9.43;100.00
58534;BME280;44109;52.398;7.024;2023-12-29T12:52:36;100344.91;;;9.65;100.00
58534;BME280;44109;52.398;7.024;2023-12-29T12:55:04;100333.63;;;9.81;100.00
58534;BME280;44109;52.398;7.024;2023-12-29T12:57:33;100340.31;;;9.76;100.00